sensor_id;sensor_type;location;lat;lon;timestamp;temperature;humidity
25250;DHT22;13201;51.148;13.738;2024-01-30T00:01:36;5.10;99.90
25250;DHT22;13201;51.148;13.738;2024-01-30T00:04:02;5.20;99.90
25250;DHT22;13201;51.148;13.738;2024-01-30T00:06:28;5.10;99.90
25250;DHT22;13201;51.148;13.738;2024-01-30T00:08:53;5.10;99.90
25250;DHT22;13201;51.148;13.738;2024-01-30T00:11:19;5.10;99.90
25250;DHT22;13201;51.148;13.738;2024-01-30T00:13:45;5.10;99.90
25250;DHT22;13201;51.148;13.738;2024-01-30T00:16:24;5.10;99.90
25250;DHT22;13201;51.148;13.738;2024-01-30T00:18:50;5.00;99.90
25250;DHT22;13201;51.148;13.738;2024-01-30T00:21:17;4.90;99.90
25250;DHT22;13201;51.148;13.738;2024-01-30T00:23:43;5.00;99.90
25250;DHT22;13201;51.148;13.738;2024-01-30T00:26:09;5.00;99.90
25250;DHT22;13201;51.148;13.738;2024-01-30T00:28:35;4.90;99.90
25250;DHT22;13201;51.148;13.738;2024-01-30T00:31:00;4.90;99.90
25250;DHT22;13201;51.148;13.738;2024-01-30T00:33:26;4.90;99.90
25250;DHT22;13201;51.148;13.738;2024-01-30T00:35:52;5.00;99.90
25250;DHT22;13201;51.148;13.738;2024-01-30T00:38:17;5.10;99.90
25250;DHT22;13201;51.148;13.738;2024-01-30T00:40:43;5.10;99.90
25250;DHT22;13201;51.148;13.738;2024-01-30T00:43:09;5.10;99.90
25250;DHT22;13201;51.148;13.738;2024-01-30T00:45:34;5.10;99.90
25250;DHT22;13201;51.148;13.738;2024-01-30T00:48:00;4.90;99.90
25250;DHT22;13201;51.148;13.738;2024-01-30T00:50:26;5.00;99.90
25250;DHT22;13201;51.148;13.738;2024-01-30T00:52:52;4.90;99.90
25250;DHT22;13201;51.148;13.738;2024-01-30T00:55:17;5.10;99.90
25250;DHT22;13201;51.148;13.738;2024-01-30T00:57:43;5.00;99.90
25250;DHT22;13201;51.148;13.738;2024-01-30T01:00:09;4.90;99.90
25250;DHT22;13201;51.148;13.738;2024-01-30T01:28:05;3.80;99.90
25250;DHT22;13201;51.148;13.738;2024-01-30T01:30:31;3.80;99.90
25250;DHT22;13201;51.148;13.738;2024-01-30T01:32:57;3.80;99.90
25250;DHT22;13201;51.148;13.738;2024-01-30T01:35:26;4.00;99.90
25250;DHT22;13201;51.148;13.738;2024-01-30T01:37:53;4.00;99.90
25250;DHT22;13201;51.148;13.738;2024-01-30T01:40:24;4.20;99.90
25250;DHT22;13201;51.148;13.738;2024-01-30T01:42:53;4.20;99.90
25250;DHT22;13201;51.148;13.738;2024-01-30T01:45:20;4.30;99.90
25250;DHT22;13201;51.148;13.738;2024-01-30T01:47:48;4.40;99.90
25250;DHT22;13201;51.148;13.738;2024-01-30T01:50:16;4.40;99.90
25250;DHT22;13201;51.148;13.738;2024-01-30T01:52:49;4.40;99.90
25250;DHT22;13201;51.148;13.738;2024-01-30T01:55:16;4.50;99.90
25250;DHT22;13201;51.148;13.738;2024-01-30T01:57:44;4.50;99.90
25250;DHT22;13201;51.148;13.738;2024-01-30T02:00:10;4.50;99.90
25250;DHT22;13201;51.148;13.738;2024-01-30T02:02:37;4.50;99.90
25250;DHT22;13201;51.148;13.738;2024-01-30T02:05:04;4.50;99.90
25250;DHT22;13201;51.148;13.738;2024-01-30T02:07:30;4.60;99.90
25250;DHT22;13201;51.148;13.738;2024-01-30T02:09:56;4.60;99.90
25250;DHT22;13201;51.148;13.738;2024-01-30T02:12:22;4.70;99.90
25250;DHT22;13201;51.148;13.738;2024-01-30T02:14:48;4.60;99.90
25250;DHT22;13201;51.148;13.738;2024-01-30T02:17:17;4.50;99.90
25250;DHT22;13201;51.148;13.738;2024-01-30T02:19:43;4.50;99.90
25250;DHT22;13201;51.148;13.738;2024-01-30T02:22:09;4.50;99.90
25250;DHT22;13201;51.148;13.738;2024-01-30T02:24:35;4.50;99.90
25250;DHT22;13201;51.148;13.738;2024-01-30T02:27:00;4.40;99.90
25250;DHT22;13201;51.148;13.738;2024-01-30T02:29:26;4.40;99.90
25250;DHT22;13201;51.148;13.738;2024-01-30T02:31:52;4.40;99.90
25250;DHT22;13201;51.148;13.738;2024-01-30T02:34:18;4.40;99.90
25250;DHT22;13201;51.148;13.738;2024-01-30T02:36:44;4.40;99.90
25250;DHT22;13201;51.148;13.738;2024-01-30T02:39:10;4.40;99.90
25250;DHT22;13201;51.148;13.738;2024-01-30T02:41:36;4.40;99.90
25250;DHT22;13201;51.148;13.738;2024-01-30T02:44:04;4.40;99.90
25250;DHT22;13201;51.148;13.738;2024-01-30T02:46:30;4.40;99.90
25250;DHT22;13201;51.148;13.738;2024-01-30T02:48:56;4.50;99.90
25250;DHT22;13201;51.148;13.738;2024-01-30T02:51:22;4.40;99.90
25250;DHT22;13201;51.148;13.738;2024-01-30T02:53:48;4.40;99.90
25250;DHT22;13201;51.148;13.738;2024-01-30T02:56:14;4.30;99.90
25250;DHT22;13201;51.148;13.738;2024-01-30T02:58:40;4.40;99.90
25250;DHT22;13201;51.148;13.738;2024-01-30T03:01:06;4.40;99.90
25250;DHT22;13201;51.148;13.738;2024-01-30T03:03:32;4.40;99.90
25250;DHT22;13201;51.148;13.738;2024-01-30T03:05:59;4.30;99.90
25250;DHT22;13201;51.148;13.738;2024-01-30T03:08:25;4.40;99.90
25250;DHT22;13201;51.148;13.738;2024-01-30T03:10:50;4.30;99.90
25250;DHT22;13201;51.148;13.738;2024-01-30T03:13:16;4.30;99.90
25250;DHT22;13201;51.148;13.738;2024-01-30T03:15:42;4.30;99.90
25250;DHT22;13201;51.148;13.738;2024-01-30T03:18:07;4.30;99.90
25250;DHT22;13201;51.148;13.738;2024-01-30T03:20:34;4.20;99.90
25250;DHT22;13201;51.148;13.738;2024-01-30T03:23:00;4.20;99.90
25250;DHT22;13201;51.148;13.738;2024-01-30T03:25:26;4.20;99.90
25250;DHT22;13201;51.148;13.738;2024-01-30T03:27:51;4.20;99.90
25250;DHT22;13201;51.148;13.738;2024-01-30T03:30:17;4.20;99.90
25250;DHT22;13201;51.148;13.738;2024-01-30T03:32:43;4.10;99.90
25250;DHT22;13201;51.148;13.738;2024-01-30T03:35:09;4.20;99.90
25250;DHT22;13201;51.148;13.738;2024-01-30T03:37:35;4.10;99.90
25250;DHT22;13201;51.148;13.738;2024-01-30T03:40:01;4.00;99.90
25250;DHT22;13201;51.148;13.738;2024-01-30T03:42:27;4.10;99.90
25250;DHT22;13201;51.148;13.738;2024-01-30T03:44:53;4.10;99.90
25250;DHT22;13201;51.148;13.738;2024-01-30T03:47:20;4.10;99.90
25250;DHT22;13201;51.148;13.738;2024-01-30T03:49:46;4.20;99.90
25250;DHT22;13201;51.148;13.738;2024-01-30T03:52:11;4.20;99.90
25250;DHT22;13201;51.148;13.738;2024-01-30T03:54:37;4.20;99.90
25250;DHT22;13201;51.148;13.738;2024-01-30T03:57:03;4.10;99.90
25250;DHT22;13201;51.148;13.738;2024-01-30T03:59:29;4.20;99.90
25250;DHT22;13201;51.148;13.738;2024-01-30T04:01:55;4.10;99.90
25250;DHT22;13201;51.148;13.738;2024-01-30T04:04:21;4.10;99.90
25250;DHT22;13201;51.148;13.738;2024-01-30T04:06:47;4.20;99.90
25250;DHT22;13201;51.148;13.738;2024-01-30T04:09:13;4.00;99.90
25250;DHT22;13201;51.148;13.738;2024-01-30T04:11:39;4.00;99.90
25250;DHT22;13201;51.148;13.738;2024-01-30T04:14:05;3.90;99.90
25250;DHT22;13201;51.148;13.738;2024-01-30T04:16:31;4.00;99.90
25250;DHT22;13201;51.148;13.738;2024-01-30T04:18:57;3.90;99.90
25250;DHT22;13201;51.148;13.738;2024-01-30T04:21:23;4.00;99.90
25250;DHT22;13201;51.148;13.738;2024-01-30T04:23:50;3.90;99.90
25250;DHT22;13201;51.148;13.738;2024-01-30T04:26:16;3.90;99.90
25250;DHT22;13201;51.148;13.738;2024-01-30T04:28:42;3.80;99.90
25250;DHT22;13201;51.148;13.738;2024-01-30T04:31:08;3.70;99.90
25250;DHT22;13201;51.148;13.738;2024-01-30T04:33:33;3.70;99.90
25250;DHT22;13201;51.148;13.738;2024-01-30T04:35:59;3.70;99.90
25250;DHT22;13201;51.148;13.738;2024-01-30T04:38:25;3.60;99.90
25250;DHT22;13201;51.148;13.738;2024-01-30T04:40:50;3.60;99.90
25250;DHT22;13201;51.148;13.738;2024-01-30T04:43:16;3.70;99.90
25250;DHT22;13201;51.148;13.738;2024-01-30T04:45:42;3.60;99.90
25250;DHT22;13201;51.148;13.738;2024-01-30T04:48:07;3.60;99.90
25250;DHT22;13201;51.148;13.738;2024-01-30T04:50:33;3.60;99.90
25250;DHT22;13201;51.148;13.738;2024-01-30T04:52:59;3.70;99.90
25250;DHT22;13201;51.148;13.738;2024-01-30T04:55:24;3.70;99.90
25250;DHT22;13201;51.148;13.738;2024-01-30T04:57:50;3.70;99.90
25250;DHT22;13201;51.148;13.738;2024-01-30T05:00:16;3.60;99.90
25250;DHT22;13201;51.148;13.738;2024-01-30T05:02:42;3.60;99.90
25250;DHT22;13201;51.148;13.738;2024-01-30T05:05:07;3.70;99.90
25250;DHT22;13201;51.148;13.738;2024-01-30T05:07:34;3.70;99.90
25250;DHT22;13201;51.148;13.738;2024-01-30T05:09:59;3.60;99.90
25250;DHT22;13201;51.148;13.738;2024-01-30T05:12:25;3.60;99.90
25250;DHT22;13201;51.148;13.738;2024-01-30T05:14:51;3.60;99.90
25250;DHT22;13201;51.148;13.738;2024-01-30T05:17:17;3.60;99.90
25250;DHT22;13201;51.148;13.738;2024-01-30T05:19:43;3.70;99.90
25250;DHT22;13201;51.148;13.738;2024-01-30T05:22:09;3.70;99.90
25250;DHT22;13201;51.148;13.738;2024-01-30T05:24:36;3.70;99.90
25250;DHT22;13201;51.148;13.738;2024-01-30T05:27:03;3.70;99.90
25250;DHT22;13201;51.148;13.738;2024-01-30T05:29:28;3.70;99.90
25250;DHT22;13201;51.148;13.738;2024-01-30T05:31:54;3.70;99.90
25250;DHT22;13201;51.148;13.738;2024-01-30T05:34:19;3.70;99.90
25250;DHT22;13201;51.148;13.738;2024-01-30T05:36:45;3.70;99.90
25250;DHT22;13201;51.148;13.738;2024-01-30T05:39:11;3.70;99.90
25250;DHT22;13201;51.148;13.738;2024-01-30T05:41:36;3.70;99.90
25250;DHT22;13201;51.148;13.738;2024-01-30T05:44:02;3.70;99.90
25250;DHT22;13201;51.148;13.738;2024-01-30T05:46:28;3.80;99.90
25250;DHT22;13201;51.148;13.738;2024-01-30T05:48:53;3.70;99.90
25250;DHT22;13201;51.148;13.738;2024-01-30T05:51:19;3.70;99.90
25250;DHT22;13201;51.148;13.738;2024-01-30T05:53:45;3.80;99.90
25250;DHT22;13201;51.148;13.738;2024-01-30T05:56:10;3.70;99.90
25250;DHT22;13201;51.148;13.738;2024-01-30T05:58:36;3.80;99.90
25250;DHT22;13201;51.148;13.738;2024-01-30T06:01:06;3.90;99.90
25250;DHT22;13201;51.148;13.738;2024-01-30T06:03:32;3.80;99.90
25250;DHT22;13201;51.148;13.738;2024-01-30T06:05:58;3.80;99.90
25250;DHT22;13201;51.148;13.738;2024-01-30T06:08:24;3.90;99.90
25250;DHT22;13201;51.148;13.738;2024-01-30T06:10:49;3.90;99.90
25250;DHT22;13201;51.148;13.738;2024-01-30T06:13:15;3.80;99.90
25250;DHT22;13201;51.148;13.738;2024-01-30T06:15:41;3.80;99.90
25250;DHT22;13201;51.148;13.738;2024-01-30T06:18:06;3.80;99.90
25250;DHT22;13201;51.148;13.738;2024-01-30T06:20:32;3.70;99.90
25250;DHT22;13201;51.148;13.738;2024-01-30T06:22:58;3.80;99.90
25250;DHT22;13201;51.148;13.738;2024-01-30T06:25:23;3.70;99.90
25250;DHT22;13201;51.148;13.738;2024-01-30T06:27:49;3.80;99.90
25250;DHT22;13201;51.148;13.738;2024-01-30T06:30:15;3.80;99.90
25250;DHT22;13201;51.148;13.738;2024-01-30T06:32:41;3.80;99.90
25250;DHT22;13201;51.148;13.738;2024-01-30T06:35:06;3.80;99.90
25250;DHT22;13201;51.148;13.738;2024-01-30T06:37:32;3.80;99.90
25250;DHT22;13201;51.148;13.738;2024-01-30T06:39:58;3.70;99.90
25250;DHT22;13201;51.148;13.738;2024-01-30T06:42:24;3.80;99.90
25250;DHT22;13201;51.148;13.738;2024-01-30T06:44:49;3.70;99.90
25250;DHT22;13201;51.148;13.738;2024-01-30T06:47:15;3.70;99.90
25250;DHT22;13201;51.148;13.738;2024-01-30T06:49:41;3.80;99.90
25250;DHT22;13201;51.148;13.738;2024-01-30T06:52:08;3.80;99.90
25250;DHT22;13201;51.148;13.738;2024-01-30T06:54:33;3.80;99.90
25250;DHT22;13201;51.148;13.738;2024-01-30T06:57:00;3.80;99.90
25250;DHT22;13201;51.148;13.738;2024-01-30T06:59:26;3.80;99.90
25250;DHT22;13201;51.148;13.738;2024-01-30T07:01:51;3.90;99.90
25250;DHT22;13201;51.148;13.738;2024-01-30T07:04:17;3.90;99.90
25250;DHT22;13201;51.148;13.738;2024-01-30T07:06:43;3.90;99.90
25250;DHT22;13201;51.148;13.738;2024-01-30T07:09:09;3.90;99.90
25250;DHT22;13201;51.148;13.738;2024-01-30T07:11:35;4.00;99.90
25250;DHT22;13201;51.148;13.738;2024-01-30T07:14:01;3.90;99.90
25250;DHT22;13201;51.148;13.738;2024-01-30T07:16:29;4.00;99.90
25250;DHT22;13201;51.148;13.738;2024-01-30T07:18:54;4.00;99.90
25250;DHT22;13201;51.148;13.738;2024-01-30T07:21:21;4.10;99.90
25250;DHT22;13201;51.148;13.738;2024-01-30T07:23:50;4.00;99.90
25250;DHT22;13201;51.148;13.738;2024-01-30T07:26:16;4.10;99.90
25250;DHT22;13201;51.148;13.738;2024-01-30T07:28:41;4.10;99.90
25250;DHT22;13201;51.148;13.738;2024-01-30T07:31:08;4.20;99.90
25250;DHT22;13201;51.148;13.738;2024-01-30T07:33:33;4.20;99.90
25250;DHT22;13201;51.148;13.738;2024-01-30T07:35:59;4.30;99.90
25250;DHT22;13201;51.148;13.738;2024-01-30T07:38:25;4.30;99.90
25250;DHT22;13201;51.148;13.738;2024-01-30T07:40:50;4.40;99.90
25250;DHT22;13201;51.148;13.738;2024-01-30T07:43:16;4.40;99.90
25250;DHT22;13201;51.148;13.738;2024-01-30T07:45:42;4.50;99.90
25250;DHT22;13201;51.148;13.738;2024-01-30T07:48:08;4.50;99.90
25250;DHT22;13201;51.148;13.738;2024-01-30T07:50:33;4.50;99.90
25250;DHT22;13201;51.148;13.738;2024-01-30T07:53:00;4.60;99.90
25250;DHT22;13201;51.148;13.738;2024-01-30T07:55:26;4.60;99.90
25250;DHT22;13201;51.148;13.738;2024-01-30T07:57:56;4.60;99.90
25250;DHT22;13201;51.148;13.738;2024-01-30T08:00:22;4.70;99.90
25250;DHT22;13201;51.148;13.738;2024-01-30T08:02:47;4.70;99.90
25250;DHT22;13201;51.148;13.738;2024-01-30T08:05:13;4.70;99.90
25250;DHT22;13201;51.148;13.738;2024-01-30T08:07:41;4.70;99.90
25250;DHT22;13201;51.148;13.738;2024-01-30T08:10:08;4.70;99.90
25250;DHT22;13201;51.148;13.738;2024-01-30T08:12:34;4.80;99.90
25250;DHT22;13201;51.148;13.738;2024-01-30T08:14:59;4.90;99.90
25250;DHT22;13201;51.148;13.738;2024-01-30T08:17:25;4.90;99.90
25250;DHT22;13201;51.148;13.738;2024-01-30T08:19:50;5.00;99.90
25250;DHT22;13201;51.148;13.738;2024-01-30T08:22:16;5.00;99.90
25250;DHT22;13201;51.148;13.738;2024-01-30T08:24:42;5.00;99.90
25250;DHT22;13201;51.148;13.738;2024-01-30T08:27:07;5.10;99.90
25250;DHT22;13201;51.148;13.738;2024-01-30T08:29:37;5.20;99.90
25250;DHT22;13201;51.148;13.738;2024-01-30T08:32:04;5.20;99.90
25250;DHT22;13201;51.148;13.738;2024-01-30T08:34:30;5.30;99.90
25250;DHT22;13201;51.148;13.738;2024-01-30T08:36:56;5.40;99.90
25250;DHT22;13201;51.148;13.738;2024-01-30T08:39:21;5.50;99.90
25250;DHT22;13201;51.148;13.738;2024-01-30T08:41:47;5.60;99.90
25250;DHT22;13201;51.148;13.738;2024-01-30T08:44:13;5.60;99.90
25250;DHT22;13201;51.148;13.738;2024-01-30T08:46:38;5.70;99.90
25250;DHT22;13201;51.148;13.738;2024-01-30T08:49:04;5.80;99.90
25250;DHT22;13201;51.148;13.738;2024-01-30T08:51:30;5.80;99.90
25250;DHT22;13201;51.148;13.738;2024-01-30T08:53:56;5.90;99.90
25250;DHT22;13201;51.148;13.738;2024-01-30T08:56:22;6.00;99.90
25250;DHT22;13201;51.148;13.738;2024-01-30T08:58:48;6.00;99.90
25250;DHT22;13201;51.148;13.738;2024-01-30T09:01:14;6.00;99.90
25250;DHT22;13201;51.148;13.738;2024-01-30T09:03:39;6.10;99.90
25250;DHT22;13201;51.148;13.738;2024-01-30T09:06:13;6.20;99.90
25250;DHT22;13201;51.148;13.738;2024-01-30T09:08:39;6.20;99.90
25250;DHT22;13201;51.148;13.738;2024-01-30T09:11:14;6.40;99.90
25250;DHT22;13201;51.148;13.738;2024-01-30T09:13:41;6.40;99.90
25250;DHT22;13201;51.148;13.738;2024-01-30T09:16:07;6.40;99.90
25250;DHT22;13201;51.148;13.738;2024-01-30T09:18:32;6.50;99.90
25250;DHT22;13201;51.148;13.738;2024-01-30T09:20:58;6.60;99.90
25250;DHT22;13201;51.148;13.738;2024-01-30T09:23:24;6.60;99.90
25250;DHT22;13201;51.148;13.738;2024-01-30T09:25:50;6.70;99.90
25250;DHT22;13201;51.148;13.738;2024-01-30T09:28:19;6.70;99.90
25250;DHT22;13201;51.148;13.738;2024-01-30T09:30:45;6.70;99.90
25250;DHT22;13201;51.148;13.738;2024-01-30T09:33:10;6.70;99.90
25250;DHT22;13201;51.148;13.738;2024-01-30T09:35:36;6.80;99.90
25250;DHT22;13201;51.148;13.738;2024-01-30T09:38:02;6.80;99.90
25250;DHT22;13201;51.148;13.738;2024-01-30T09:40:28;6.90;99.90
25250;DHT22;13201;51.148;13.738;2024-01-30T09:42:54;6.90;99.90
25250;DHT22;13201;51.148;13.738;2024-01-30T09:45:24;7.00;99.90
25250;DHT22;13201;51.148;13.738;2024-01-30T09:47:50;6.90;99.90
25250;DHT22;13201;51.148;13.738;2024-01-30T09:50:16;6.90;99.90
25250;DHT22;13201;51.148;13.738;2024-01-30T09:52:46;6.90;99.90
25250;DHT22;13201;51.148;13.738;2024-01-30T09:55:12;6.90;99.90
25250;DHT22;13201;51.148;13.738;2024-01-30T09:57:37;6.90;99.90
25250;DHT22;13201;51.148;13.738;2024-01-30T10:00:04;7.00;99.90
25250;DHT22;13201;51.148;13.738;2024-01-30T10:02:31;7.10;99.90
25250;DHT22;13201;51.148;13.738;2024-01-30T10:04:57;7.20;99.90
25250;DHT22;13201;51.148;13.738;2024-01-30T10:07:23;7.30;99.90
25250;DHT22;13201;51.148;13.738;2024-01-30T10:09:49;7.10;99.90
25250;DHT22;13201;51.148;13.738;2024-01-30T10:12:15;7.00;99.90
25250;DHT22;13201;51.148;13.738;2024-01-30T10:14:42;7.20;99.90
25250;DHT22;13201;51.148;13.738;2024-01-30T10:17:11;7.40;99.90
25250;DHT22;13201;51.148;13.738;2024-01-30T10:19:40;7.50;99.90
25250;DHT22;13201;51.148;13.738;2024-01-30T10:22:06;7.50;99.90
25250;DHT22;13201;51.148;13.738;2024-01-30T10:24:36;7.60;99.90
25250;DHT22;13201;51.148;13.738;2024-01-30T10:27:02;7.60;99.90
25250;DHT22;13201;51.148;13.738;2024-01-30T10:29:28;7.70;99.90
25250;DHT22;13201;51.148;13.738;2024-01-30T10:32:03;7.80;99.90
25250;DHT22;13201;51.148;13.738;2024-01-30T10:34:29;7.90;99.90
25250;DHT22;13201;51.148;13.738;2024-01-30T10:37:10;7.90;99.90
25250;DHT22;13201;51.148;13.738;2024-01-30T10:39:44;8.10;99.90
25250;DHT22;13201;51.148;13.738;2024-01-30T10:42:17;8.10;99.90
25250;DHT22;13201;51.148;13.738;2024-01-30T10:45:08;8.00;99.90
25250;DHT22;13201;51.148;13.738;2024-01-30T10:47:35;8.00;99.90
25250;DHT22;13201;51.148;13.738;2024-01-30T10:50:05;8.10;99.90
25250;DHT22;13201;51.148;13.738;2024-01-30T10:52:32;8.10;99.90
25250;DHT22;13201;51.148;13.738;2024-01-30T10:54:58;8.00;99.90
25250;DHT22;13201;51.148;13.738;2024-01-30T10:57:24;8.20;99.90
25250;DHT22;13201;51.148;13.738;2024-01-30T10:59:51;8.20;99.90
25250;DHT22;13201;51.148;13.738;2024-01-30T11:02:18;8.20;99.90
25250;DHT22;13201;51.148;13.738;2024-01-30T11:04:45;8.10;99.90
25250;DHT22;13201;51.148;13.738;2024-01-30T11:07:18;8.20;99.90
25250;DHT22;13201;51.148;13.738;2024-01-30T11:10:13;8.30;99.90
25250;DHT22;13201;51.148;13.738;2024-01-30T11:12:40;8.30;99.90
25250;DHT22;13201;51.148;13.738;2024-01-30T11:15:09;8.30;99.90
25250;DHT22;13201;51.148;13.738;2024-01-30T11:17:42;8.20;99.90
25250;DHT22;13201;51.148;13.738;2024-01-30T11:20:15;8.20;99.90
25250;DHT22;13201;51.148;13.738;2024-01-30T11:22:50;8.10;99.90
25250;DHT22;13201;51.148;13.738;2024-01-30T11:25:17;8.20;99.90
25250;DHT22;13201;51.148;13.738;2024-01-30T11:27:44;8.30;99.90
25250;DHT22;13201;51.148;13.738;2024-01-30T11:30:10;8.20;99.90
25250;DHT22;13201;51.148;13.738;2024-01-30T11:32:36;8.30;99.90
25250;DHT22;13201;51.148;13.738;2024-01-30T11:35:06;8.30;99.90
25250;DHT22;13201;51.148;13.738;2024-01-30T11:37:37;8.10;99.90
25250;DHT22;13201;51.148;13.738;2024-01-30T11:40:04;8.00;99.90
25250;DHT22;13201;51.148;13.738;2024-01-30T11:42:30;8.00;99.90
25250;DHT22;13201;51.148;13.738;2024-01-30T11:44:56;8.00;99.90
25250;DHT22;13201;51.148;13.738;2024-01-30T11:47:22;8.00;99.90
25250;DHT22;13201;51.148;13.738;2024-01-30T11:49:48;8.00;99.90
25250;DHT22;13201;51.148;13.738;2024-01-30T11:52:14;8.10;99.90
25250;DHT22;13201;51.148;13.738;2024-01-30T11:54:40;8.10;99.90
25250;DHT22;13201;51.148;13.738;2024-01-30T11:57:06;8.10;99.90
25250;DHT22;13201;51.148;13.738;2024-01-30T11:59:31;7.80;99.90
25250;DHT22;13201;51.148;13.738;2024-01-30T12:01:57;7.80;99.90
25250;DHT22;13201;51.148;13.738;2024-01-30T12:04:23;7.60;99.90
25250;DHT22;13201;51.148;13.738;2024-01-30T12:06:52;7.60;99.90
25250;DHT22;13201;51.148;13.738;2024-01-30T12:09:18;7.70;99.90
25250;DHT22;13201;51.148;13.738;2024-01-30T12:11:47;7.60;99.90
25250;DHT22;13201;51.148;13.738;2024-01-30T12:14:14;7.70;99.90
25250;DHT22;13201;51.148;13.738;2024-01-30T12:16:40;7.70;99.90
25250;DHT22;13201;51.148;13.738;2024-01-30T12:19:07;7.70;99.90
25250;DHT22;13201;51.148;13.738;2024-01-30T12:21:34;7.80;99.90
25250;DHT22;13201;51.148;13.738;2024-01-30T12:24:00;7.90;99.90
25250;DHT22;13201;51.148;13.738;2024-01-30T12:26:26;7.90;99.90
25250;DHT22;13201;51.148;13.738;2024-01-30T12:28:56;7.90;99.90
25250;DHT22;13201;51.148;13.738;2024-01-30T12:31:27;7.90;99.90
25250;DHT22;13201;51.148;13.738;2024-01-30T12:33:53;8.00;99.90
25250;DHT22;13201;51.148;13.738;2024-01-30T12:36:19;8.00;99.90
25250;DHT22;13201;51.148;13.738;2024-01-30T12:38:44;7.90;99.90
25250;DHT22;13201;51.148;13.738;2024-01-30T12:41:10;7.90;99.90
25250;DHT22;13201;51.148;13.738;2024-01-30T12:43:36;8.00;99.90
25250;DHT22;13201;51.148;13.738;2024-01-30T12:46:03;8.00;99.90
25250;DHT22;13201;51.148;13.738;2024-01-30T12:48:28;8.00;99.90
25250;DHT22;13201;51.148;13.738;2024-01-30T12:50:56;7.80;99.90
25250;DHT22;13201;51.148;13.738;2024-01-30T12:53:22;8.00;99.90
25250;DHT22;13201;51.148;13.738;2024-01-30T12:55:47;7.90;99.90
25250;DHT22;13201;51.148;13.738;2024-01-30T12:58:15;7.70;99.90
25250;DHT22;13201;51.148;13.738;2024-01-30T13:00:41;7.80;99.90
25250;DHT22;13201;51.148;13.738;2024-01-30T13:03:09;7.80;99.90
25250;DHT22;13201;51.148;13.738;2024-01-30T13:05:35;7.80;99.90
25250;DHT22;13201;51.148;13.738;2024-01-30T13:08:01;7.80;99.90
25250;DHT22;13201;51.148;13.738;2024-01-30T13:10:27;7.70;99.90
25250;DHT22;13201;51.148;13.738;2024-01-30T13:12:53;7.70;99.90
25250;DHT22;13201;51.148;13.738;2024-01-30T13:15:18;7.50;99.90
25250;DHT22;13201;51.148;13.738;2024-01-30T13:17:44;7.70;99.90
25250;DHT22;13201;51.148;13.738;2024-01-30T13:20:13;7.70;99.90
25250;DHT22;13201;51.148;13.738;2024-01-30T13:22:43;7.70;99.90
25250;DHT22;13201;51.148;13.738;2024-01-30T13:25:08;7.80;99.90
25250;DHT22;13201;51.148;13.738;2024-01-30T13:27:34;7.80;99.90
25250;DHT22;13201;51.148;13.738;2024-01-30T13:30:00;7.80;99.90
25250;DHT22;13201;51.148;13.738;2024-01-30T13:32:26;7.90;99.90
25250;DHT22;13201;51.148;13.738;2024-01-30T13:34:51;7.90;99.90
25250;DHT22;13201;51.148;13.738;2024-01-30T13:37:17;7.80;99.90
25250;DHT22;13201;51.148;13.738;2024-01-30T13:39:43;8.00;99.90
25250;DHT22;13201;51.148;13.738;2024-01-30T13:42:08;7.90;99.90
25250;DHT22;13201;51.148;13.738;2024-01-30T13:44:35;7.90;99.90
25250;DHT22;13201;51.148;13.738;2024-01-30T13:47:01;8.00;99.90
25250;DHT22;13201;51.148;13.738;2024-01-30T13:49:26;7.70;99.90
25250;DHT22;13201;51.148;13.738;2024-01-30T13:51:52;7.90;99.90
25250;DHT22;13201;51.148;13.738;2024-01-30T13:54:18;8.00;99.90
25250;DHT22;13201;51.148;13.738;2024-01-30T13:56:44;8.00;99.90
25250;DHT22;13201;51.148;13.738;2024-01-30T13:59:09;7.90;99.90
25250;DHT22;13201;51.148;13.738;2024-01-30T14:01:35;7.80;99.90
25250;DHT22;13201;51.148;13.738;2024-01-30T14:04:01;7.80;99.90
25250;DHT22;13201;51.148;13.738;2024-01-30T14:06:27;7.80;99.90
25250;DHT22;13201;51.148;13.738;2024-01-30T14:08:52;7.90;99.90
25250;DHT22;13201;51.148;13.738;2024-01-30T14:11:19;7.90;99.90
25250;DHT22;13201;51.148;13.738;2024-01-30T14:13:44;8.20;99.90
25250;DHT22;13201;51.148;13.738;2024-01-30T14:16:10;8.30;99.90
25250;DHT22;13201;51.148;13.738;2024-01-30T14:18:36;8.30;99.90
25250;DHT22;13201;51.148;13.738;2024-01-30T14:21:02;8.30;99.90
25250;DHT22;13201;51.148;13.738;2024-01-30T14:23:28;8.30;99.90
25250;DHT22;13201;51.148;13.738;2024-01-30T14:25:53;8.10;99.90
25250;DHT22;13201;51.148;13.738;2024-01-30T14:28:19;8.20;99.90
25250;DHT22;13201;51.148;13.738;2024-01-30T14:30:45;8.30;99.90
25250;DHT22;13201;51.148;13.738;2024-01-30T14:33:10;8.30;99.90
25250;DHT22;13201;51.148;13.738;2024-01-30T14:35:37;8.50;99.90
25250;DHT22;13201;51.148;13.738;2024-01-30T14:38:02;8.30;99.90
25250;DHT22;13201;51.148;13.738;2024-01-30T14:40:30;8.20;99.90
25250;DHT22;13201;51.148;13.738;2024-01-30T14:42:56;8.10;99.90
25250;DHT22;13201;51.148;13.738;2024-01-30T14:45:22;8.10;99.90
25250;DHT22;13201;51.148;13.738;2024-01-30T14:47:47;8.10;99.90
25250;DHT22;13201;51.148;13.738;2024-01-30T14:50:14;8.00;99.90
25250;DHT22;13201;51.148;13.738;2024-01-30T14:52:42;7.90;99.90
25250;DHT22;13201;51.148;13.738;2024-01-30T14:55:07;7.90;99.90
25250;DHT22;13201;51.148;13.738;2024-01-30T14:57:34;7.80;99.90
25250;DHT22;13201;51.148;13.738;2024-01-30T15:00:00;7.70;99.90
25250;DHT22;13201;51.148;13.738;2024-01-30T15:02:26;7.70;99.90
25250;DHT22;13201;51.148;13.738;2024-01-30T15:04:51;7.70;99.90
25250;DHT22;13201;51.148;13.738;2024-01-30T15:07:17;7.60;99.90
25250;DHT22;13201;51.148;13.738;2024-01-30T15:09:43;7.60;99.90
25250;DHT22;13201;51.148;13.738;2024-01-30T15:12:08;7.40;99.90
25250;DHT22;13201;51.148;13.738;2024-01-30T15:14:34;7.40;99.90
25250;DHT22;13201;51.148;13.738;2024-01-30T15:17:00;7.30;99.90
25250;DHT22;13201;51.148;13.738;2024-01-30T15:19:26;7.20;99.90
25250;DHT22;13201;51.148;13.738;2024-01-30T15:21:52;7.10;99.90
25250;DHT22;13201;51.148;13.738;2024-01-30T15:24:17;7.10;99.90
25250;DHT22;13201;51.148;13.738;2024-01-30T15:26:45;7.20;99.90
25250;DHT22;13201;51.148;13.738;2024-01-30T15:29:11;7.00;99.90
25250;DHT22;13201;51.148;13.738;2024-01-30T15:31:37;6.80;99.90
25250;DHT22;13201;51.148;13.738;2024-01-30T15:34:02;6.90;99.90
25250;DHT22;13201;51.148;13.738;2024-01-30T15:36:29;6.80;99.90
25250;DHT22;13201;51.148;13.738;2024-01-30T15:38:56;6.80;99.90
25250;DHT22;13201;51.148;13.738;2024-01-30T15:41:21;6.80;99.90
25250;DHT22;13201;51.148;13.738;2024-01-30T15:43:47;6.60;99.90
25250;DHT22;13201;51.148;13.738;2024-01-30T15:46:13;6.40;99.90
25250;DHT22;13201;51.148;13.738;2024-01-30T15:48:39;6.40;99.90
25250;DHT22;13201;51.148;13.738;2024-01-30T15:51:06;6.40;99.90